Llanrwst, United Kingdom
Current Conditions -  °F | °C
As of 6:50 PM on Sunday 21 Dec 2014 (Local Time) from EGOV Reporting Station
Haze Haze  
Wind Chill: 11°   Ceiling: 500
Heat Index: 11°   Visibility: 4mi
Dew Point: 10°   Wind: 30mph
Humidity: 94%   Direction: 210°SSW
Pressure: 30"   Gusts: NA
Location:  53.14°N, 3.8°W
Report Text: EGOV 211850Z AUTO 21026KT 7000 BR BKN005/// BKN160/// 11/10 Q1016
Loading
Personal Weather Stations






























Interactive Weather Map New forecast layout! Learn more

10-Day Weather Forecast

Advertisements
Track Severe Weather on mobile